sensor_id;sensor_type;location;lat;lon;timestamp;P1;durP1;ratioP1;P2;durP2;ratioP2
10823;SDS011;39116;59.332;18.034;2024-02-04T00:02:09;19.85;;;1.75;;
10823;SDS011;39116;59.332;18.034;2024-02-04T00:04:34;7.50;;;1.52;;
10823;SDS011;39116;59.332;18.034;2024-02-04T00:06:56;6.60;;;1.52;;
10823;SDS011;39116;59.332;18.034;2024-02-04T00:09:17;6.60;;;1.90;;
10823;SDS011;39116;59.332;18.034;2024-02-04T00:11:39;4.30;;;1.65;;
10823;SDS011;39116;59.332;18.034;2024-02-04T00:14:03;6.10;;;1.83;;
10823;SDS011;39116;59.332;18.034;2024-02-04T00:16:24;4.20;;;1.63;;
10823;SDS011;39116;59.332;18.034;2024-02-04T00:18:46;7.88;;;1.92;;
10823;SDS011;39116;59.332;18.034;2024-02-04T00:21:08;8.65;;;1.60;;
10823;SDS011;39116;59.332;18.034;2024-02-04T00:23:29;9.75;;;1.92;;
10823;SDS011;39116;59.332;18.034;2024-02-04T00:25:51;6.68;;;1.58;;
10823;SDS011;39116;59.332;18.034;2024-02-04T00:28:13;6.53;;;1.67;;
10823;SDS011;39116;59.332;18.034;2024-02-04T00:30:36;7.00;;;1.40;;
10823;SDS011;39116;59.332;18.034;2024-02-04T00:32:58;5.38;;;1.55;;
10823;SDS011;39116;59.332;18.034;2024-02-04T00:35:23;7.28;;;2.08;;
10823;SDS011;39116;59.332;18.034;2024-02-04T00:37:46;12.18;;;1.88;;
10823;SDS011;39116;59.332;18.034;2024-02-04T00:40:08;5.68;;;1.70;;
10823;SDS011;39116;59.332;18.034;2024-02-04T00:42:30;5.15;;;1.55;;
10823;SDS011;39116;59.332;18.034;2024-02-04T00:44:52;7.30;;;2.00;;
10823;SDS011;39116;59.332;18.034;2024-02-04T00:47:15;5.75;;;1.55;;
10823;SDS011;39116;59.332;18.034;2024-02-04T00:49:37;7.40;;;1.40;;
10823;SDS011;39116;59.332;18.034;2024-02-04T00:51:58;7.00;;;1.67;;
10823;SDS011;39116;59.332;18.034;2024-02-04T00:54:20;4.97;;;1.10;;
10823;SDS011;39116;59.332;18.034;2024-02-04T00:56:42;7.32;;;1.60;;
10823;SDS011;39116;59.332;18.034;2024-02-04T00:59:03;5.55;;;1.63;;
10823;SDS011;39116;59.332;18.034;2024-02-04T01:01:25;6.65;;;1.33;;
10823;SDS011;39116;59.332;18.034;2024-02-04T01:03:49;6.40;;;1.45;;
10823;SDS011;39116;59.332;18.034;2024-02-04T01:06:10;6.20;;;1.37;;
10823;SDS011;39116;59.332;18.034;2024-02-04T01:08:32;6.28;;;1.23;;
10823;SDS011;39116;59.332;18.034;2024-02-04T01:10:54;3.72;;;0.98;;
10823;SDS011;39116;59.332;18.034;2024-02-04T01:13:16;4.65;;;1.10;;
10823;SDS011;39116;59.332;18.034;2024-02-04T01:15:38;3.63;;;1.02;;
10823;SDS011;39116;59.332;18.034;2024-02-04T01:18:00;4.85;;;1.13;;
10823;SDS011;39116;59.332;18.034;2024-02-04T01:20:23;3.60;;;1.10;;
10823;SDS011;39116;59.332;18.034;2024-02-04T01:22:45;5.75;;;1.40;;
10823;SDS011;39116;59.332;18.034;2024-02-04T01:25:07;2.20;;;0.90;;
10823;SDS011;39116;59.332;18.034;2024-02-04T01:27:29;1.55;;;1.00;;
10823;SDS011;39116;59.332;18.034;2024-02-04T01:29:50;4.70;;;1.30;;
10823;SDS011;39116;59.332;18.034;2024-02-04T01:32:13;1.95;;;0.88;;
10823;SDS011;39116;59.332;18.034;2024-02-04T01:34:36;4.13;;;1.10;;
10823;SDS011;39116;59.332;18.034;2024-02-04T01:36:59;4.50;;;1.40;;
10823;SDS011;39116;59.332;18.034;2024-02-04T01:39:21;4.22;;;0.90;;
10823;SDS011;39116;59.332;18.034;2024-02-04T01:41:43;5.00;;;0.82;;
10823;SDS011;39116;59.332;18.034;2024-02-04T01:44:06;3.85;;;1.15;;
10823;SDS011;39116;59.332;18.034;2024-02-04T01:46:27;5.55;;;1.00;;
10823;SDS011;39116;59.332;18.034;2024-02-04T01:48:49;1.90;;;0.80;;
10823;SDS011;39116;59.332;18.034;2024-02-04T01:51:11;2.97;;;0.80;;
10823;SDS011;39116;59.332;18.034;2024-02-04T01:53:35;1.77;;;0.73;;
10823;SDS011;39116;59.332;18.034;2024-02-04T01:55:57;4.47;;;1.23;;
10823;SDS011;39116;59.332;18.034;2024-02-04T01:58:19;1.05;;;0.80;;
10823;SDS011;39116;59.332;18.034;2024-02-04T02:03:11;3.60;;;0.82;;
10823;SDS011;39116;59.332;18.034;2024-02-04T02:05:34;6.47;;;1.33;;
10823;SDS011;39116;59.332;18.034;2024-02-04T02:07:56;3.10;;;0.98;;
10823;SDS011;39116;59.332;18.034;2024-02-04T02:10:19;3.35;;;1.00;;
10823;SDS011;39116;59.332;18.034;2024-02-04T02:12:44;4.38;;;0.90;;
10823;SDS011;39116;59.332;18.034;2024-02-04T02:15:10;2.80;;;0.95;;
10823;SDS011;39116;59.332;18.034;2024-02-04T02:17:35;2.75;;;1.10;;
10823;SDS011;39116;59.332;18.034;2024-02-04T02:20:02;2.08;;;0.70;;
10823;SDS011;39116;59.332;18.034;2024-02-04T02:22:28;3.15;;;0.98;;
10823;SDS011;39116;59.332;18.034;2024-02-04T02:24:52;2.80;;;0.88;;
10823;SDS011;39116;59.332;18.034;2024-02-04T02:27:14;4.28;;;0.90;;
10823;SDS011;39116;59.332;18.034;2024-02-04T02:29:36;2.63;;;0.80;;
10823;SDS011;39116;59.332;18.034;2024-02-04T02:31:58;1.15;;;0.63;;
10823;SDS011;39116;59.332;18.034;2024-02-04T02:34:20;2.65;;;0.90;;
10823;SDS011;39116;59.332;18.034;2024-02-04T02:36:43;4.32;;;1.05;;
10823;SDS011;39116;59.332;18.034;2024-02-04T02:39:08;2.15;;;0.90;;
10823;SDS011;39116;59.332;18.034;2024-02-04T02:41:32;5.38;;;0.70;;
10823;SDS011;39116;59.332;18.034;2024-02-04T02:43:55;2.92;;;0.70;;
10823;SDS011;39116;59.332;18.034;2024-02-04T02:46:18;4.15;;;0.68;;
10823;SDS011;39116;59.332;18.034;2024-02-04T02:48:40;1.48;;;0.70;;
10823;SDS011;39116;59.332;18.034;2024-02-04T02:51:01;5.35;;;1.00;;
10823;SDS011;39116;59.332;18.034;2024-02-04T02:53:23;1.48;;;0.70;;
10823;SDS011;39116;59.332;18.034;2024-02-04T02:55:45;2.30;;;0.80;;
10823;SDS011;39116;59.332;18.034;2024-02-04T02:58:09;1.15;;;0.60;;
10823;SDS011;39116;59.332;18.034;2024-02-04T03:00:30;0.80;;;0.65;;
10823;SDS011;39116;59.332;18.034;2024-02-04T03:02:52;1.73;;;0.68;;
10823;SDS011;39116;59.332;18.034;2024-02-04T03:05:15;2.15;;;0.80;;
10823;SDS011;39116;59.332;18.034;2024-02-04T03:07:37;1.05;;;0.60;;
10823;SDS011;39116;59.332;18.034;2024-02-04T03:09:59;2.78;;;0.80;;
10823;SDS011;39116;59.332;18.034;2024-02-04T03:12:20;1.23;;;0.70;;
10823;SDS011;39116;59.332;18.034;2024-02-04T03:14:43;2.95;;;0.70;;
10823;SDS011;39116;59.332;18.034;2024-02-04T03:17:05;1.08;;;0.60;;
10823;SDS011;39116;59.332;18.034;2024-02-04T03:19:27;1.63;;;0.70;;
10823;SDS011;39116;59.332;18.034;2024-02-04T03:21:49;3.10;;;0.80;;
10823;SDS011;39116;59.332;18.034;2024-02-04T03:24:10;3.17;;;0.90;;
10823;SDS011;39116;59.332;18.034;2024-02-04T03:26:32;3.42;;;0.90;;
10823;SDS011;39116;59.332;18.034;2024-02-04T03:28:54;2.13;;;0.60;;
10823;SDS011;39116;59.332;18.034;2024-02-04T03:31:20;2.63;;;0.90;;
10823;SDS011;39116;59.332;18.034;2024-02-04T03:33:42;3.40;;;1.02;;
10823;SDS011;39116;59.332;18.034;2024-02-04T03:36:04;2.00;;;0.80;;
10823;SDS011;39116;59.332;18.034;2024-02-04T03:38:26;4.43;;;1.00;;
10823;SDS011;39116;59.332;18.034;2024-02-04T03:40:47;2.87;;;0.63;;
10823;SDS011;39116;59.332;18.034;2024-02-04T03:43:10;1.83;;;0.57;;
10823;SDS011;39116;59.332;18.034;2024-02-04T03:45:32;1.17;;;0.67;;
10823;SDS011;39116;59.332;18.034;2024-02-04T03:47:55;4.10;;;0.60;;
10823;SDS011;39116;59.332;18.034;2024-02-04T03:50:17;5.63;;;0.80;;
10823;SDS011;39116;59.332;18.034;2024-02-04T03:52:38;4.28;;;0.80;;
10823;SDS011;39116;59.332;18.034;2024-02-04T03:55:00;3.50;;;0.68;;
10823;SDS011;39116;59.332;18.034;2024-02-04T03:57:22;3.15;;;0.70;;
10823;SDS011;39116;59.332;18.034;2024-02-04T03:59:44;1.60;;;0.97;;
10823;SDS011;39116;59.332;18.034;2024-02-04T04:02:06;1.80;;;0.77;;
10823;SDS011;39116;59.332;18.034;2024-02-04T04:04:29;1.87;;;0.67;;
10823;SDS011;39116;59.332;18.034;2024-02-04T04:06:51;1.33;;;0.70;;
10823;SDS011;39116;59.332;18.034;2024-02-04T04:09:13;1.48;;;0.63;;
10823;SDS011;39116;59.332;18.034;2024-02-04T04:11:35;2.13;;;0.80;;
10823;SDS011;39116;59.332;18.034;2024-02-04T04:13:56;2.40;;;0.63;;
10823;SDS011;39116;59.332;18.034;2024-02-04T04:16:20;4.28;;;0.90;;
10823;SDS011;39116;59.332;18.034;2024-02-04T04:18:42;1.63;;;0.75;;
10823;SDS011;39116;59.332;18.034;2024-02-04T04:21:05;4.27;;;0.97;;
10823;SDS011;39116;59.332;18.034;2024-02-04T04:23:27;2.40;;;0.63;;
10823;SDS011;39116;59.332;18.034;2024-02-04T04:25:48;3.10;;;0.83;;
10823;SDS011;39116;59.332;18.034;2024-02-04T04:28:10;2.83;;;0.70;;
10823;SDS011;39116;59.332;18.034;2024-02-04T04:30:32;1.70;;;0.90;;
10823;SDS011;39116;59.332;18.034;2024-02-04T04:32:54;1.07;;;0.60;;
10823;SDS011;39116;59.332;18.034;2024-02-04T04:35:16;3.07;;;0.83;;
10823;SDS011;39116;59.332;18.034;2024-02-04T04:37:39;1.77;;;0.68;;
10823;SDS011;39116;59.332;18.034;2024-02-04T04:40:01;2.63;;;0.77;;
10823;SDS011;39116;59.332;18.034;2024-02-04T04:42:23;3.07;;;0.90;;
10823;SDS011;39116;59.332;18.034;2024-02-04T04:44:45;7.80;;;1.00;;
10823;SDS011;39116;59.332;18.034;2024-02-04T04:47:07;2.87;;;0.70;;
10823;SDS011;39116;59.332;18.034;2024-02-04T04:49:29;3.13;;;1.10;;
10823;SDS011;39116;59.332;18.034;2024-02-04T04:51:51;5.57;;;1.00;;
10823;SDS011;39116;59.332;18.034;2024-02-04T04:54:14;1.63;;;0.80;;
10823;SDS011;39116;59.332;18.034;2024-02-04T04:56:38;6.97;;;1.15;;
10823;SDS011;39116;59.332;18.034;2024-02-04T04:58:59;2.00;;;0.80;;
10823;SDS011;39116;59.332;18.034;2024-02-04T05:01:21;2.33;;;0.83;;
10823;SDS011;39116;59.332;18.034;2024-02-04T05:03:43;1.95;;;0.60;;
10823;SDS011;39116;59.332;18.034;2024-02-04T05:06:05;2.78;;;0.73;;
10823;SDS011;39116;59.332;18.034;2024-02-04T05:08:27;4.20;;;0.70;;
10823;SDS011;39116;59.332;18.034;2024-02-04T05:10:50;1.88;;;0.77;;
10823;SDS011;39116;59.332;18.034;2024-02-04T05:13:12;2.67;;;0.83;;
10823;SDS011;39116;59.332;18.034;2024-02-04T05:15:34;3.47;;;1.03;;
10823;SDS011;39116;59.332;18.034;2024-02-04T05:17:56;1.80;;;0.77;;
10823;SDS011;39116;59.332;18.034;2024-02-04T05:20:17;3.03;;;0.97;;
10823;SDS011;39116;59.332;18.034;2024-02-04T05:22:39;2.13;;;0.97;;
10823;SDS011;39116;59.332;18.034;2024-02-04T05:25:01;3.30;;;0.80;;
10823;SDS011;39116;59.332;18.034;2024-02-04T05:27:26;3.00;;;0.90;;
10823;SDS011;39116;59.332;18.034;2024-02-04T05:29:48;1.95;;;0.55;;
10823;SDS011;39116;59.332;18.034;2024-02-04T05:32:09;1.00;;;0.60;;
10823;SDS011;39116;59.332;18.034;2024-02-04T05:34:31;1.57;;;0.70;;
10823;SDS011;39116;59.332;18.034;2024-02-04T05:36:54;3.87;;;0.80;;
10823;SDS011;39116;59.332;18.034;2024-02-04T05:39:16;2.90;;;0.90;;
10823;SDS011;39116;59.332;18.034;2024-02-04T05:41:37;5.00;;;0.90;;
10823;SDS011;39116;59.332;18.034;2024-02-04T05:44:01;2.97;;;0.80;;
10823;SDS011;39116;59.332;18.034;2024-02-04T05:46:23;3.00;;;0.90;;
10823;SDS011;39116;59.332;18.034;2024-02-04T05:48:44;2.63;;;0.90;;
10823;SDS011;39116;59.332;18.034;2024-02-04T05:51:06;4.13;;;0.93;;
10823;SDS011;39116;59.332;18.034;2024-02-04T05:53:28;3.07;;;0.73;;
10823;SDS011;39116;59.332;18.034;2024-02-04T05:55:49;3.57;;;0.83;;
10823;SDS011;39116;59.332;18.034;2024-02-04T05:58:11;3.03;;;0.80;;
10823;SDS011;39116;59.332;18.034;2024-02-04T06:00:35;2.33;;;0.77;;
10823;SDS011;39116;59.332;18.034;2024-02-04T06:02:57;3.30;;;0.80;;
10823;SDS011;39116;59.332;18.034;2024-02-04T06:05:19;3.07;;;0.90;;
10823;SDS011;39116;59.332;18.034;2024-02-04T06:07:42;5.77;;;1.10;;
10823;SDS011;39116;59.332;18.034;2024-02-04T06:10:04;3.17;;;0.87;;
10823;SDS011;39116;59.332;18.034;2024-02-04T06:12:26;1.40;;;0.70;;
10823;SDS011;39116;59.332;18.034;2024-02-04T06:14:47;3.53;;;0.87;;
10823;SDS011;39116;59.332;18.034;2024-02-04T06:17:11;2.47;;;0.80;;
10823;SDS011;39116;59.332;18.034;2024-02-04T06:19:32;4.30;;;0.77;;
10823;SDS011;39116;59.332;18.034;2024-02-04T06:21:54;1.00;;;0.53;;
10823;SDS011;39116;59.332;18.034;2024-02-04T06:24:16;3.73;;;0.80;;
10823;SDS011;39116;59.332;18.034;2024-02-04T06:26:40;1.50;;;0.70;;
10823;SDS011;39116;59.332;18.034;2024-02-04T06:29:02;2.70;;;0.80;;
10823;SDS011;39116;59.332;18.034;2024-02-04T06:31:24;2.47;;;0.80;;
10823;SDS011;39116;59.332;18.034;2024-02-04T06:33:47;2.67;;;0.80;;
10823;SDS011;39116;59.332;18.034;2024-02-04T06:36:09;3.23;;;1.03;;
10823;SDS011;39116;59.332;18.034;2024-02-04T06:38:31;4.43;;;0.90;;
10823;SDS011;39116;59.332;18.034;2024-02-04T06:40:53;4.77;;;1.97;;
10823;SDS011;39116;59.332;18.034;2024-02-04T06:43:14;8.27;;;1.90;;
10823;SDS011;39116;59.332;18.034;2024-02-04T06:45:36;3.00;;;1.33;;
10823;SDS011;39116;59.332;18.034;2024-02-04T06:47:58;4.97;;;0.87;;
10823;SDS011;39116;59.332;18.034;2024-02-04T06:50:21;3.67;;;0.90;;
10823;SDS011;39116;59.332;18.034;2024-02-04T06:52:43;2.40;;;1.10;;
10823;SDS011;39116;59.332;18.034;2024-02-04T06:55:06;3.93;;;1.07;;
10823;SDS011;39116;59.332;18.034;2024-02-04T06:57:27;2.53;;;0.83;;
10823;SDS011;39116;59.332;18.034;2024-02-04T06:59:49;3.30;;;0.80;;
10823;SDS011;39116;59.332;18.034;2024-02-04T07:02:11;2.10;;;1.13;;
10823;SDS011;39116;59.332;18.034;2024-02-04T07:04:33;3.13;;;1.23;;
10823;SDS011;39116;59.332;18.034;2024-02-04T07:06:56;1.50;;;0.73;;
10823;SDS011;39116;59.332;18.034;2024-02-04T07:09:17;3.23;;;1.10;;
10823;SDS011;39116;59.332;18.034;2024-02-04T07:11:39;3.13;;;0.90;;
10823;SDS011;39116;59.332;18.034;2024-02-04T07:14:01;2.07;;;0.80;;
10823;SDS011;39116;59.332;18.034;2024-02-04T07:16:23;1.77;;;0.70;;
10823;SDS011;39116;59.332;18.034;2024-02-04T07:18:44;5.10;;;1.05;;
10823;SDS011;39116;59.332;18.034;2024-02-04T07:21:06;2.83;;;0.53;;
10823;SDS011;39116;59.332;18.034;2024-02-04T07:23:29;2.43;;;0.90;;
10823;SDS011;39116;59.332;18.034;2024-02-04T07:25:51;2.83;;;0.80;;
10823;SDS011;39116;59.332;18.034;2024-02-04T07:28:13;2.67;;;0.97;;
10823;SDS011;39116;59.332;18.034;2024-02-04T07:30:35;3.60;;;0.80;;
10823;SDS011;39116;59.332;18.034;2024-02-04T07:32:56;3.47;;;1.10;;
10823;SDS011;39116;59.332;18.034;2024-02-04T07:35:18;2.43;;;0.70;;
10823;SDS011;39116;59.332;18.034;2024-02-04T07:37:40;4.57;;;1.00;;
10823;SDS011;39116;59.332;18.034;2024-02-04T07:40:04;2.33;;;1.30;;
10823;SDS011;39116;59.332;18.034;2024-02-04T07:42:26;4.47;;;0.73;;
10823;SDS011;39116;59.332;18.034;2024-02-04T07:44:48;2.03;;;1.00;;
10823;SDS011;39116;59.332;18.034;2024-02-04T07:47:10;2.00;;;0.80;;
10823;SDS011;39116;59.332;18.034;2024-02-04T07:49:31;2.80;;;0.80;;
10823;SDS011;39116;59.332;18.034;2024-02-04T07:51:53;7.67;;;1.43;;
10823;SDS011;39116;59.332;18.034;2024-02-04T07:54:14;3.37;;;0.77;;
10823;SDS011;39116;59.332;18.034;2024-02-04T07:56:37;4.13;;;1.10;;
10823;SDS011;39116;59.332;18.034;2024-02-04T07:58:59;3.70;;;0.90;;
10823;SDS011;39116;59.332;18.034;2024-02-04T08:01:21;4.17;;;1.10;;
10823;SDS011;39116;59.332;18.034;2024-02-04T08:03:44;2.33;;;0.93;;
10823;SDS011;39116;59.332;18.034;2024-02-04T08:06:07;4.47;;;0.90;;
10823;SDS011;39116;59.332;18.034;2024-02-04T08:08:28;2.17;;;0.67;;
10823;SDS011;39116;59.332;18.034;2024-02-04T08:10:50;4.57;;;0.83;;
10823;SDS011;39116;59.332;18.034;2024-02-04T08:13:13;3.80;;;0.90;;
10823;SDS011;39116;59.332;18.034;2024-02-04T08:15:35;2.60;;;0.70;;
10823;SDS011;39116;59.332;18.034;2024-02-04T08:18:00;5.00;;;1.10;;
10823;SDS011;39116;59.332;18.034;2024-02-04T08:20:35;5.37;;;0.70;;
10823;SDS011;39116;59.332;18.034;2024-02-04T08:23:06;4.40;;;1.10;;
10823;SDS011;39116;59.332;18.034;2024-02-04T08:25:28;2.73;;;0.90;;
10823;SDS011;39116;59.332;18.034;2024-02-04T08:27:49;2.77;;;0.90;;
10823;SDS011;39116;59.332;18.034;2024-02-04T08:30:13;1.60;;;0.90;;
10823;SDS011;39116;59.332;18.034;2024-02-04T08:32:36;2.27;;;0.87;;
10823;SDS011;39116;59.332;18.034;2024-02-04T08:34:58;4.10;;;1.20;;
10823;SDS011;39116;59.332;18.034;2024-02-04T08:37:20;6.67;;;0.80;;
10823;SDS011;39116;59.332;18.034;2024-02-04T08:39:42;3.67;;;1.00;;
10823;SDS011;39116;59.332;18.034;2024-02-04T08:42:03;1.67;;;0.83;;
10823;SDS011;39116;59.332;18.034;2024-02-04T08:44:26;1.92;;;0.80;;
10823;SDS011;39116;59.332;18.034;2024-02-04T08:46:49;1.37;;;0.93;;
10823;SDS011;39116;59.332;18.034;2024-02-04T08:49:11;5.47;;;0.80;;
10823;SDS011;39116;59.332;18.034;2024-02-04T08:51:33;2.50;;;0.97;;
10823;SDS011;39116;59.332;18.034;2024-02-04T08:53:55;4.68;;;1.02;;
10823;SDS011;39116;59.332;18.034;2024-02-04T08:56:17;6.20;;;1.13;;
10823;SDS011;39116;59.332;18.034;2024-02-04T08:58:38;6.43;;;1.17;;
10823;SDS011;39116;59.332;18.034;2024-02-04T09:01:00;4.00;;;0.97;;
10823;SDS011;39116;59.332;18.034;2024-02-04T09:03:23;5.10;;;0.90;;
10823;SDS011;39116;59.332;18.034;2024-02-04T09:05:45;5.23;;;0.80;;
10823;SDS011;39116;59.332;18.034;2024-02-04T09:08:07;4.43;;;0.90;;
10823;SDS011;39116;59.332;18.034;2024-02-04T09:10:29;5.00;;;0.70;;
10823;SDS011;39116;59.332;18.034;2024-02-04T09:12:50;4.45;;;1.40;;
10823;SDS011;39116;59.332;18.034;2024-02-04T09:15:12;4.38;;;0.90;;
10823;SDS011;39116;59.332;18.034;2024-02-04T09:17:34;3.42;;;1.10;;
10823;SDS011;39116;59.332;18.034;2024-02-04T09:19:57;1.73;;;0.70;;
10823;SDS011;39116;59.332;18.034;2024-02-04T09:22:19;4.00;;;1.15;;
10823;SDS011;39116;59.332;18.034;2024-02-04T09:24:40;2.72;;;0.90;;
10823;SDS011;39116;59.332;18.034;2024-02-04T09:27:02;3.63;;;1.15;;
10823;SDS011;39116;59.332;18.034;2024-02-04T09:29:24;2.17;;;0.88;;
10823;SDS011;39116;59.332;18.034;2024-02-04T09:31:46;5.25;;;1.00;;
10823;SDS011;39116;59.332;18.034;2024-02-04T09:34:09;5.03;;;1.37;;
10823;SDS011;39116;59.332;18.034;2024-02-04T09:36:33;4.43;;;1.30;;
10823;SDS011;39116;59.332;18.034;2024-02-04T09:38:57;4.03;;;0.98;;
10823;SDS011;39116;59.332;18.034;2024-02-04T09:41:18;2.15;;;1.00;;
10823;SDS011;39116;59.332;18.034;2024-02-04T09:43:40;2.33;;;1.00;;
10823;SDS011;39116;59.332;18.034;2024-02-04T09:46:02;4.30;;;1.00;;
10823;SDS011;39116;59.332;18.034;2024-02-04T09:48:24;2.28;;;0.90;;
10823;SDS011;39116;59.332;18.034;2024-02-04T09:50:47;7.93;;;1.10;;
10823;SDS011;39116;59.332;18.034;2024-02-04T09:53:10;8.02;;;1.13;;
10823;SDS011;39116;59.332;18.034;2024-02-04T09:55:36;4.88;;;1.10;;
10823;SDS011;39116;59.332;18.034;2024-02-04T09:58:00;3.78;;;0.90;;
10823;SDS011;39116;59.332;18.034;2024-02-04T10:00:23;2.17;;;1.03;;
10823;SDS011;39116;59.332;18.034;2024-02-04T10:02:44;4.70;;;1.00;;
10823;SDS011;39116;59.332;18.034;2024-02-04T10:05:07;4.57;;;1.23;;
10823;SDS011;39116;59.332;18.034;2024-02-04T10:07:30;3.85;;;1.10;;
10823;SDS011;39116;59.332;18.034;2024-02-04T10:09:53;6.18;;;1.10;;
10823;SDS011;39116;59.332;18.034;2024-02-04T10:12:15;7.65;;;1.13;;
10823;SDS011;39116;59.332;18.034;2024-02-04T10:14:37;6.53;;;1.40;;
10823;SDS011;39116;59.332;18.034;2024-02-04T10:16:58;3.92;;;1.20;;
10823;SDS011;39116;59.332;18.034;2024-02-04T10:19:23;4.57;;;1.10;;
10823;SDS011;39116;59.332;18.034;2024-02-04T10:21:45;2.70;;;1.23;;
10823;SDS011;39116;59.332;18.034;2024-02-04T10:24:07;6.67;;;1.20;;
10823;SDS011;39116;59.332;18.034;2024-02-04T10:26:30;3.70;;;1.10;;
10823;SDS011;39116;59.332;18.034;2024-02-04T10:28:54;3.05;;;1.30;;
10823;SDS011;39116;59.332;18.034;2024-02-04T10:31:15;5.13;;;1.25;;
10823;SDS011;39116;59.332;18.034;2024-02-04T10:33:37;4.00;;;0.88;;
10823;SDS011;39116;59.332;18.034;2024-02-04T10:35:59;4.10;;;1.20;;
10823;SDS011;39116;59.332;18.034;2024-02-04T10:38:21;2.20;;;0.93;;
10823;SDS011;39116;59.332;18.034;2024-02-04T10:40:45;3.03;;;1.23;;
10823;SDS011;39116;59.332;18.034;2024-02-04T10:43:08;5.97;;;0.95;;
10823;SDS011;39116;59.332;18.034;2024-02-04T10:45:30;6.15;;;1.20;;
10823;SDS011;39116;59.332;18.034;2024-02-04T10:47:55;3.83;;;1.00;;
10823;SDS011;39116;59.332;18.034;2024-02-04T10:50:17;4.90;;;1.15;;
10823;SDS011;39116;59.332;18.034;2024-02-04T10:52:39;5.00;;;1.10;;
10823;SDS011;39116;59.332;18.034;2024-02-04T10:55:02;6.30;;;1.80;;
10823;SDS011;39116;59.332;18.034;2024-02-04T10:57:25;4.07;;;1.38;;
10823;SDS011;39116;59.332;18.034;2024-02-04T10:59:48;4.43;;;1.10;;
10823;SDS011;39116;59.332;18.034;2024-02-04T11:02:10;3.50;;;1.02;;
10823;SDS011;39116;59.332;18.034;2024-02-04T11:04:32;4.60;;;1.20;;
10823;SDS011;39116;59.332;18.034;2024-02-04T11:06:54;5.07;;;0.98;;
10823;SDS011;39116;59.332;18.034;2024-02-04T11:09:17;4.13;;;1.00;;
10823;SDS011;39116;59.332;18.034;2024-02-04T11:11:39;6.85;;;1.40;;
10823;SDS011;39116;59.332;18.034;2024-02-04T11:14:02;6.53;;;1.27;;
10823;SDS011;39116;59.332;18.034;2024-02-04T11:16:33;3.42;;;1.23;;
10823;SDS011;39116;59.332;18.034;2024-02-04T11:18:58;4.35;;;1.10;;
10823;SDS011;39116;59.332;18.034;2024-02-04T11:21:41;3.55;;;0.95;;
10823;SDS011;39116;59.332;18.034;2024-02-04T11:24:09;6.90;;;1.33;;
10823;SDS011;39116;59.332;18.034;2024-02-04T11:26:33;4.73;;;1.50;;
10823;SDS011;39116;59.332;18.034;2024-02-04T11:28:55;4.85;;;1.13;;
10823;SDS011;39116;59.332;18.034;2024-02-04T11:31:17;7.10;;;1.30;;
10823;SDS011;39116;59.332;18.034;2024-02-04T11:33:41;4.77;;;0.80;;
10823;SDS011;39116;59.332;18.034;2024-02-04T11:36:03;5.78;;;1.35;;
10823;SDS011;39116;59.332;18.034;2024-02-04T11:38:30;9.25;;;1.20;;
10823;SDS011;39116;59.332;18.034;2024-02-04T11:40:52;6.25;;;1.70;;
10823;SDS011;39116;59.332;18.034;2024-02-04T11:43:14;4.65;;;1.65;;
10823;SDS011;39116;59.332;18.034;2024-02-04T11:45:39;2.05;;;1.00;;
10823;SDS011;39116;59.332;18.034;2024-02-04T11:48:01;3.60;;;1.02;;
10823;SDS011;39116;59.332;18.034;2024-02-04T11:50:28;3.80;;;1.30;;
10823;SDS011;39116;59.332;18.034;2024-02-04T11:52:51;5.50;;;1.10;;
10823;SDS011;39116;59.332;18.034;2024-02-04T11:55:13;3.17;;;1.20;;
10823;SDS011;39116;59.332;18.034;2024-02-04T11:57:35;7.82;;;2.22;;
10823;SDS011;39116;59.332;18.034;2024-02-04T11:59:57;6.00;;;1.40;;
10823;SDS011;39116;59.332;18.034;2024-02-04T12:02:19;2.78;;;0.90;;
10823;SDS011;39116;59.332;18.034;2024-02-04T12:04:41;5.07;;;1.10;;
10823;SDS011;39116;59.332;18.034;2024-02-04T12:07:05;4.80;;;1.20;;
10823;SDS011;39116;59.332;18.034;2024-02-04T12:09:26;7.97;;;1.27;;
10823;SDS011;39116;59.332;18.034;2024-02-04T12:11:48;4.75;;;0.90;;
10823;SDS011;39116;59.332;18.034;2024-02-04T12:14:12;3.60;;;1.00;;
10823;SDS011;39116;59.332;18.034;2024-02-04T12:16:35;4.32;;;0.98;;
10823;SDS011;39116;59.332;18.034;2024-02-04T12:18:56;2.67;;;1.25;;
10823;SDS011;39116;59.332;18.034;2024-02-04T12:21:18;5.18;;;1.30;;
10823;SDS011;39116;59.332;18.034;2024-02-04T12:23:43;3.83;;;1.00;;
10823;SDS011;39116;59.332;18.034;2024-02-04T12:26:04;7.00;;;1.08;;
10823;SDS011;39116;59.332;18.034;2024-02-04T12:28:26;6.28;;;1.40;;
10823;SDS011;39116;59.332;18.034;2024-02-04T12:30:52;7.15;;;1.10;;
10823;SDS011;39116;59.332;18.034;2024-02-04T12:33:17;4.43;;;1.10;;
10823;SDS011;39116;59.332;18.034;2024-02-04T12:35:39;4.13;;;1.10;;
10823;SDS011;39116;59.332;18.034;2024-02-04T12:38:01;5.45;;;1.00;;
10823;SDS011;39116;59.332;18.034;2024-02-04T12:40:25;5.13;;;1.20;;
10823;SDS011;39116;59.332;18.034;2024-02-04T12:42:51;3.83;;;1.33;;
10823;SDS011;39116;59.332;18.034;2024-02-04T12:45:14;2.30;;;1.13;;
10823;SDS011;39116;59.332;18.034;2024-02-04T12:47:35;2.17;;;0.90;;
10823;SDS011;39116;59.332;18.034;2024-02-04T12:49:58;4.55;;;1.05;;
10823;SDS011;39116;59.332;18.034;2024-02-04T12:52:20;5.78;;;1.15;;
10823;SDS011;39116;59.332;18.034;2024-02-04T12:54:42;4.47;;;1.00;;
10823;SDS011;39116;59.332;18.034;2024-02-04T12:57:05;5.63;;;1.38;;
10823;SDS011;39116;59.332;18.034;2024-02-04T12:59:28;4.53;;;1.13;;
10823;SDS011;39116;59.332;18.034;2024-02-04T13:01:51;7.15;;;1.33;;
10823;SDS011;39116;59.332;18.034;2024-02-04T13:04:13;4.15;;;1.25;;
10823;SDS011;39116;59.332;18.034;2024-02-04T13:06:38;6.30;;;1.05;;
10823;SDS011;39116;59.332;18.034;2024-02-04T13:09:00;4.95;;;1.20;;
10823;SDS011;39116;59.332;18.034;2024-02-04T13:11:22;4.15;;;1.15;;
10823;SDS011;39116;59.332;18.034;2024-02-04T13:13:45;7.70;;;1.73;;
10823;SDS011;39116;59.332;18.034;2024-02-04T13:16:07;4.15;;;1.17;;
10823;SDS011;39116;59.332;18.034;2024-02-04T13:18:29;2.10;;;1.00;;
10823;SDS011;39116;59.332;18.034;2024-02-04T13:20:50;4.10;;;1.58;;
10823;SDS011;39116;59.332;18.034;2024-02-04T13:23:12;3.72;;;1.13;;
10823;SDS011;39116;59.332;18.034;2024-02-04T13:25:34;7.30;;;1.17;;
10823;SDS011;39116;59.332;18.034;2024-02-04T13:27:56;3.90;;;0.95;;
10823;SDS011;39116;59.332;18.034;2024-02-04T13:30:19;5.13;;;1.38;;
10823;SDS011;39116;59.332;18.034;2024-02-04T13:32:41;5.30;;;1.25;;
10823;SDS011;39116;59.332;18.034;2024-02-04T13:35:04;4.43;;;1.13;;
10823;SDS011;39116;59.332;18.034;2024-02-04T13:37:26;6.20;;;0.95;;
10823;SDS011;39116;59.332;18.034;2024-02-04T13:39:48;5.25;;;1.20;;
10823;SDS011;39116;59.332;18.034;2024-02-04T13:42:11;3.03;;;1.15;;
10823;SDS011;39116;59.332;18.034;2024-02-04T13:44:32;7.22;;;1.10;;
10823;SDS011;39116;59.332;18.034;2024-02-04T13:46:55;5.05;;;1.17;;
10823;SDS011;39116;59.332;18.034;2024-02-04T13:49:17;6.85;;;1.40;;
10823;SDS011;39116;59.332;18.034;2024-02-04T13:51:39;3.53;;;0.93;;
10823;SDS011;39116;59.332;18.034;2024-02-04T13:54:01;2.90;;;1.15;;
10823;SDS011;39116;59.332;18.034;2024-02-04T13:56:22;3.78;;;1.00;;
10823;SDS011;39116;59.332;18.034;2024-02-04T13:58:44;2.03;;;0.93;;
10823;SDS011;39116;59.332;18.034;2024-02-04T14:01:06;2.35;;;1.00;;
10823;SDS011;39116;59.332;18.034;2024-02-04T14:03:29;3.40;;;1.02;;
10823;SDS011;39116;59.332;18.034;2024-02-04T14:05:51;4.50;;;1.23;;
10823;SDS011;39116;59.332;18.034;2024-02-04T14:08:12;3.20;;;1.13;;